Time;durP1;ratioP1;P1;durP2;ratioP2;P2;SDS_P1;SDS_P2;PMS_P1;PMS_P2;Temp;Humidity;BMP_temperature;BMP_pressure;BME280_temperature;BME280_humidity;BME280_pressure;Samples;Min_cycle;Max_cycle;Signal;HPM_P1;HPM_P2
2022/04/22 00:00:38;;;;;;;0.07;0.07;;;;;;;;;;5021441;28;20215;-71
2022/04/22 00:03:07;;;;;;;0.10;0.10;;;;;;;;;;5009246;28;20212;-71
2022/04/22 00:05:34;;;;;;;0.10;0.10;;;;;;;;;;5026056;28;20261;-71
2022/04/22 00:08:01;;;;;;;0.10;0.10;;;;;;;;;;5026909;28;20627;-71
2022/04/22 00:10:29;;;;;;;0.10;0.10;;;;;;;;;;5004042;28;20215;-70
2022/04/22 00:12:56;;;;;;;0.10;0.10;;;;;;;;;;5022307;28;20637;-71
2022/04/22 00:15:25;;;;;;;0.10;0.10;;;;;;;;;;5012592;28;20291;-70
2022/04/22 00:17:52;;;;;;;0.10;0.10;;;;;;;;;;5025346;28;20614;-70
2022/04/22 00:20:20;;;;;;;0.10;0.10;;;;;;;;;;5033822;28;20746;-71
2022/04/22 00:22:47;;;;;;;0.10;0.10;;;;;;;;;;5019059;28;20621;-71
2022/04/22 00:25:15;;;;;;;0.10;0.10;;;;;;;;;;5001234;28;20273;-71
2022/04/22 00:27:43;;;;;;;0.10;0.10;;;;;;;;;;5022218;28;20607;-71
2022/04/22 00:30:11;;;;;;;0.10;0.10;;;;;;;;;;5022543;28;20641;-71
2022/04/22 00:32:40;;;;;;;0.10;0.10;;;;;;;;;;5017707;28;20720;-71
2022/04/22 00:35:08;;;;;;;0.10;0.10;;;;;;;;;;5006364;28;20655;-71
2022/04/22 00:37:36;;;;;;;0.10;0.10;;;;;;;;;;5024977;28;20606;-71
2022/04/22 00:40:04;;;;;;;0.10;0.10;;;;;;;;;;5004125;28;20623;-71
2022/04/22 00:42:31;;;;;;;0.10;0.10;;;;;;;;;;5026776;28;20714;-71
2022/04/22 00:44:59;;;;;;;0.10;0.10;;;;;;;;;;5007995;28;20691;-71
2022/04/22 00:47:26;;;;;;;0.10;0.10;;;;;;;;;;5010350;28;20633;-71
2022/04/22 00:49:55;;;;;;;0.10;0.10;;;;;;;;;;5011188;28;20627;-71
2022/04/22 00:52:23;;;;;;;0.10;0.10;;;;;;;;;;5007446;28;20638;-71
2022/04/22 00:54:50;;;;;;;0.00;0.00;;;;;;;;;;5012911;28;20657;-71
2022/04/22 00:57:19;;;;;;;0.10;0.10;;;;;;;;;;5005175;28;20651;-71
2022/04/22 00:59:47;;;;;;;0.10;0.10;;;;;;;;;;5008879;28;21021;-71
2022/04/22 01:02:14;;;;;;;0.10;0.10;;;;;;;;;;5003284;28;20625;-71
2022/04/22 01:10:15;;;;;;;0.10;0.10;;;;;;;;;;5024199;28;20623;-71
2022/04/22 01:12:42;;;;;;;0.10;0.10;;;;;;;;;;5022386;28;20630;-71
2022/04/22 01:15:10;;;;;;;0.10;0.10;;;;;;;;;;5005063;28;20793;-71
2022/04/22 01:17:38;;;;;;;0.10;0.10;;;;;;;;;;5009409;28;20650;-71
2022/04/22 01:20:06;;;;;;;0.10;0.10;;;;;;;;;;5008280;28;20627;-71
2022/04/22 01:22:35;;;;;;;0.10;0.10;;;;;;;;;;5019727;28;20653;-71
2022/04/22 01:25:04;;;;;;;0.10;0.10;;;;;;;;;;5026322;28;20641;-71
2022/04/22 01:27:32;;;;;;;0.10;0.10;;;;;;;;;;5019199;28;20606;-71
2022/04/22 01:30:01;;;;;;;0.10;0.10;;;;;;;;;;5022043;28;20614;-71
2022/04/22 01:32:29;;;;;;;0.10;0.10;;;;;;;;;;5004348;28;21277;-71
2022/04/22 01:34:56;;;;;;;0.10;0.10;;;;;;;;;;5012038;28;20721;-71
2022/04/22 01:37:24;;;;;;;0.00;0.00;;;;;;;;;;5010532;28;20658;-71
2022/04/22 01:39:52;;;;;;;0.10;0.10;;;;;;;;;;5023611;28;20633;-71
2022/04/22 01:42:20;;;;;;;0.10;0.10;;;;;;;;;;5026840;28;20614;-71
2022/04/22 01:44:49;;;;;;;0.10;0.10;;;;;;;;;;5007063;28;20746;-71
2022/04/22 01:47:17;;;;;;;0.10;0.10;;;;;;;;;;5008487;28;20619;-71
2022/04/22 01:49:44;;;;;;;0.20;0.20;;;;;;;;;;5025363;28;20599;-71
2022/04/22 01:52:11;;;;;;;0.10;0.10;;;;;;;;;;5024612;28;20630;-71
2022/04/22 01:54:39;;;;;;;0.10;0.10;;;;;;;;;;5012206;28;20676;-71
2022/04/22 01:57:41;;;;;;;0.10;0.10;;;;;;;;;;5026827;28;20657;-71
2022/04/22 02:00:10;;;;;;;0.10;0.10;;;;;;;;;;5015751;28;20684;-71
2022/04/22 02:02:38;;;;;;;0.00;0.00;;;;;;;;;;5006859;28;20745;-71
2022/04/22 02:05:06;;;;;;;0.10;0.10;;;;;;;;;;5008955;28;20684;-72
2022/04/22 02:07:33;;;;;;;0.10;0.10;;;;;;;;;;5010213;28;20622;-72
2022/04/22 02:10:01;;;;;;;0.10;0.10;;;;;;;;;;5008297;28;20618;-72
2022/04/22 02:12:28;;;;;;;0.10;0.10;;;;;;;;;;5029911;28;20613;-72
2022/04/22 02:14:55;;;;;;;0.10;0.10;;;;;;;;;;5024101;28;20641;-72
2022/04/22 02:17:25;;;;;;;0.10;0.10;;;;;;;;;;5009869;28;20728;-72
2022/04/22 02:19:53;;;;;;;0.10;0.10;;;;;;;;;;5025468;28;20688;-72
2022/04/22 02:22:22;;;;;;;0.10;0.10;;;;;;;;;;5006373;28;20626;-71
2022/04/22 02:24:49;;;;;;;0.10;0.10;;;;;;;;;;5025925;28;20653;-71
2022/04/22 02:30:02;;;;;;;0.10;0.10;;;;;;;;;;5026207;28;20708;-72
2022/04/22 02:32:30;;;;;;;0.10;0.10;;;;;;;;;;5010109;28;20635;-72
2022/04/22 02:34:57;;;;;;;0.10;0.10;;;;;;;;;;5033187;28;20645;-72
2022/04/22 02:37:25;;;;;;;0.10;0.10;;;;;;;;;;5006445;28;20658;-72
2022/04/22 02:39:53;;;;;;;0.10;0.10;;;;;;;;;;5025102;28;20621;-71
2022/04/22 02:45:27;;;;;;;0.10;0.10;;;;;;;;;;5027632;28;20656;-70
2022/04/22 02:47:56;;;;;;;0.10;0.10;;;;;;;;;;5025837;28;20614;-71
2022/04/22 02:50:23;;;;;;;0.10;0.10;;;;;;;;;;5010727;28;20665;-71
2022/04/22 02:52:50;;;;;;;0.10;0.10;;;;;;;;;;5015513;28;20705;-71
2022/04/22 02:55:18;;;;;;;0.10;0.10;;;;;;;;;;5007335;28;20745;-71
2022/04/22 02:57:45;;;;;;;0.10;0.10;;;;;;;;;;5022557;28;20724;-71
2022/04/22 03:00:13;;;;;;;0.10;0.10;;;;;;;;;;5025458;28;20640;-71
2022/04/22 03:02:42;;;;;;;0.10;0.10;;;;;;;;;;5005408;28;20633;-71
2022/04/22 03:05:11;;;;;;;0.10;0.10;;;;;;;;;;5023814;28;20642;-71
2022/04/22 03:07:38;;;;;;;0.10;0.10;;;;;;;;;;5022687;28;20618;-71
2022/04/22 03:10:06;;;;;;;0.10;0.10;;;;;;;;;;5025297;28;20643;-72
2022/04/22 03:12:34;;;;;;;0.10;0.10;;;;;;;;;;5026102;28;20619;-71
2022/04/22 03:15:01;;;;;;;0.00;0.00;;;;;;;;;;5013661;28;20745;-71
2022/04/22 03:17:29;;;;;;;0.10;0.10;;;;;;;;;;5028087;28;20666;-71
2022/04/22 03:19:56;;;;;;;0.10;0.10;;;;;;;;;;5012934;28;20625;-71
2022/04/22 03:22:26;;;;;;;0.10;0.10;;;;;;;;;;5009974;28;20619;-71
2022/04/22 03:24:53;;;;;;;0.10;0.10;;;;;;;;;;5020736;28;20654;-71
2022/04/22 03:27:21;;;;;;;0.10;0.10;;;;;;;;;;5008200;28;20619;-71
2022/04/22 03:29:48;;;;;;;0.10;0.10;;;;;;;;;;5026565;28;20622;-71
2022/04/22 03:32:15;;;;;;;0.10;0.10;;;;;;;;;;5022483;28;20622;-71
2022/04/22 03:34:43;;;;;;;0.10;0.10;;;;;;;;;;5023140;28;20654;-71
2022/04/22 03:37:10;;;;;;;0.10;0.10;;;;;;;;;;5011620;28;20682;-71
2022/04/22 03:39:39;;;;;;;0.10;0.10;;;;;;;;;;5014205;28;20729;-71
2022/04/22 03:42:07;;;;;;;0.00;0.00;;;;;;;;;;5014415;28;20691;-71
2022/04/22 03:44:36;;;;;;;0.10;0.10;;;;;;;;;;5024137;28;21215;-71
2022/04/22 03:47:03;;;;;;;0.10;0.10;;;;;;;;;;5022077;28;20629;-72
2022/04/22 03:49:31;;;;;;;0.10;0.10;;;;;;;;;;5026168;28;21272;-71
2022/04/22 03:51:58;;;;;;;0.10;0.10;;;;;;;;;;5006104;28;20619;-71
2022/04/22 03:54:25;;;;;;;0.10;0.10;;;;;;;;;;5027330;28;20634;-72
2022/04/22 03:59:39;;;;;;;0.10;0.10;;;;;;;;;;5008578;28;20685;-72
2022/04/22 04:02:07;;;;;;;0.10;0.10;;;;;;;;;;5006685;28;20623;-72
2022/04/22 04:04:35;;;;;;;0.10;0.10;;;;;;;;;;5025393;28;20653;-72
2022/04/22 04:07:02;;;;;;;0.10;0.10;;;;;;;;;;5004457;28;20615;-72
2022/04/22 04:17:45;;;;;;;0.10;0.10;;;;;;;;;;5023473;28;20658;-72
2022/04/22 04:23:17;;;;;;;0.10;0.10;;;;;;;;;;5023082;28;20617;-72
2022/04/22 04:25:46;;;;;;;0.10;0.10;;;;;;;;;;5006222;28;20624;-72
2022/04/22 04:28:17;;;;;;;0.10;0.10;;;;;;;;;;5005173;28;20631;-72
2022/04/22 04:30:45;;;;;;;0.10;0.10;;;;;;;;;;5006506;28;20617;-71
2022/04/22 04:33:12;;;;;;;0.10;0.10;;;;;;;;;;5007538;28;21195;-72
2022/04/22 04:35:40;;;;;;;0.00;0.00;;;;;;;;;;5006056;28;20662;-71
2022/04/22 04:38:08;;;;;;;0.10;0.10;;;;;;;;;;5020764;28;20712;-71
2022/04/22 04:40:36;;;;;;;0.10;0.10;;;;;;;;;;5021626;28;20591;-71
2022/04/22 04:43:05;;;;;;;0.10;0.10;;;;;;;;;;5007241;28;20634;-70
2022/04/22 04:45:34;;;;;;;0.10;0.10;;;;;;;;;;5024864;28;20637;-69
2022/04/22 04:48:01;;;;;;;0.10;0.10;;;;;;;;;;5035068;28;20629;-68
2022/04/22 04:50:29;;;;;;;0.10;0.10;;;;;;;;;;5011809;28;20627;-68
2022/04/22 04:52:56;;;;;;;0.10;0.10;;;;;;;;;;5012113;28;20658;-69
2022/04/22 04:55:23;;;;;;;0.10;0.10;;;;;;;;;;5010763;28;20702;-69
2022/04/22 04:57:51;;;;;;;0.10;0.10;;;;;;;;;;5000866;28;20655;-70
2022/04/22 05:00:19;;;;;;;0.10;0.10;;;;;;;;;;5020665;28;20649;-69
2022/04/22 05:02:50;;;;;;;0.10;0.10;;;;;;;;;;5023991;28;20726;-69
2022/04/22 05:05:18;;;;;;;0.10;0.10;;;;;;;;;;5022184;28;20682;-69
2022/04/22 05:07:49;;;;;;;0.10;0.10;;;;;;;;;;5024613;28;20622;-70
2022/04/22 05:10:18;;;;;;;0.10;0.10;;;;;;;;;;4998752;28;20725;-68
2022/04/22 05:12:45;;;;;;;0.10;0.10;;;;;;;;;;5023584;28;20653;-70
2022/04/22 05:15:13;;;;;;;0.10;0.10;;;;;;;;;;5020341;28;20667;-69
2022/04/22 05:17:41;;;;;;;0.10;0.10;;;;;;;;;;5009716;28;20716;-69
2022/04/22 05:20:10;;;;;;;0.10;0.10;;;;;;;;;;5021373;28;20618;-69
2022/04/22 05:22:38;;;;;;;0.10;0.10;;;;;;;;;;5000841;28;20640;-69
2022/04/22 05:25:06;;;;;;;0.10;0.10;;;;;;;;;;5020109;28;20646;-69
2022/04/22 05:27:33;;;;;;;0.10;0.10;;;;;;;;;;5024683;28;20694;-69
2022/04/22 05:32:48;;;;;;;0.10;0.10;;;;;;;;;;5024144;28;20613;-69
2022/04/22 05:35:17;;;;;;;0.10;0.10;;;;;;;;;;5021181;28;20634;-69
2022/04/22 05:37:45;;;;;;;0.10;0.10;;;;;;;;;;5002297;28;20651;-69
2022/04/22 05:40:13;;;;;;;0.10;0.10;;;;;;;;;;5020067;28;20713;-69
2022/04/22 05:42:41;;;;;;;0.10;0.10;;;;;;;;;;5029096;28;20716;-70
2022/04/22 05:45:10;;;;;;;0.10;0.10;;;;;;;;;;5025322;28;20711;-69
2022/04/22 05:47:37;;;;;;;0.10;0.10;;;;;;;;;;5025562;28;20656;-69
2022/04/22 05:50:06;;;;;;;0.07;0.07;;;;;;;;;;5011818;28;20696;-68
2022/04/22 05:52:34;;;;;;;0.10;0.10;;;;;;;;;;5027560;28;20617;-69
2022/04/22 05:55:03;;;;;;;0.10;0.10;;;;;;;;;;5009331;28;21397;-69
2022/04/22 05:57:31;;;;;;;0.10;0.10;;;;;;;;;;5009217;28;20757;-70
2022/04/22 05:59:59;;;;;;;0.10;0.10;;;;;;;;;;5012544;28;20730;-69
2022/04/22 06:02:26;;;;;;;0.10;0.10;;;;;;;;;;5028307;28;20629;-69
2022/04/22 06:04:54;;;;;;;0.10;0.10;;;;;;;;;;5025893;28;20646;-68
2022/04/22 06:07:21;;;;;;;0.10;0.10;;;;;;;;;;5028845;28;20615;-69
2022/04/22 06:12:35;;;;;;;0.10;0.10;;;;;;;;;;5024549;28;20649;-69
2022/04/22 06:15:04;;;;;;;0.10;0.10;;;;;;;;;;5011687;28;20658;-69
2022/04/22 06:17:32;;;;;;;0.10;0.10;;;;;;;;;;5028565;28;20724;-69
2022/04/22 06:19:59;;;;;;;0.10;0.10;;;;;;;;;;5011821;28;20625;-69
2022/04/22 06:22:27;;;;;;;0.10;0.10;;;;;;;;;;5009775;28;20639;-69
2022/04/22 06:24:56;;;;;;;0.17;0.17;;;;;;;;;;5014454;28;20666;-69
2022/04/22 06:27:24;;;;;;;0.10;0.10;;;;;;;;;;5025092;28;20702;-69
2022/04/22 06:29:52;;;;;;;0.10;0.10;;;;;;;;;;5030532;28;20706;-69
2022/04/22 06:32:20;;;;;;;0.10;0.10;;;;;;;;;;5012336;28;20637;-69
2022/04/22 06:34:48;;;;;;;0.10;0.10;;;;;;;;;;5023784;28;20661;-69
2022/04/22 06:37:16;;;;;;;0.10;0.10;;;;;;;;;;5006619;28;20651;-70
2022/04/22 06:48:01;;;;;;;0.10;0.10;;;;;;;;;;5025027;28;20733;-69
2022/04/22 06:50:28;;;;;;;0.10;0.10;;;;;;;;;;5029651;28;20716;-69
2022/04/22 06:52:56;;;;;;;0.10;0.10;;;;;;;;;;5009024;28;20669;-69
2022/04/22 06:55:24;;;;;;;0.10;0.10;;;;;;;;;;5028271;28;20697;-70
2022/04/22 06:57:53;;;;;;;0.10;0.10;;;;;;;;;;5023264;28;20658;-70
2022/04/22 07:00:21;;;;;;;0.10;0.10;;;;;;;;;;5023223;28;20658;-70
2022/04/22 07:02:49;;;;;;;0.10;0.10;;;;;;;;;;5005759;28;20733;-70
2022/04/22 07:05:17;;;;;;;0.10;0.10;;;;;;;;;;5026345;28;20657;-70
2022/04/22 07:07:44;;;;;;;0.10;0.10;;;;;;;;;;5005314;28;20661;-70
2022/04/22 07:10:12;;;;;;;0.10;0.10;;;;;;;;;;5026786;28;21096;-70
2022/04/22 07:12:39;;;;;;;0.10;0.10;;;;;;;;;;5011633;28;20633;-70
2022/04/22 07:15:09;;;;;;;0.10;0.10;;;;;;;;;;5004906;28;20662;-69
2022/04/22 07:17:37;;;;;;;0.10;0.10;;;;;;;;;;5011282;28;20689;-70
2022/04/22 07:20:09;;;;;;;0.10;0.10;;;;;;;;;;5030349;28;20623;-70
2022/04/22 07:25:05;;;;;;;0.10;0.10;;;;;;;;;;4977386;28;20684;-70
2022/04/22 07:27:34;;;;;;;0.10;0.10;;;;;;;;;;4982356;28;20732;-69
2022/04/22 07:30:02;;;;;;;0.10;0.10;;;;;;;;;;4979135;28;20612;-71
2022/04/22 07:32:31;;;;;;;0.10;0.10;;;;;;;;;;4978078;28;20667;-69
2022/04/22 07:34:58;;;;;;;0.10;0.10;;;;;;;;;;4974483;28;20686;-69
2022/04/22 07:37:26;;;;;;;0.10;0.10;;;;;;;;;;4978381;28;20652;-69
2022/04/22 07:39:53;;;;;;;0.10;0.10;;;;;;;;;;4976724;28;20629;-69
2022/04/22 07:42:21;;;;;;;0.10;0.10;;;;;;;;;;4976219;28;20659;-69
2022/04/22 07:47:37;;;;;;;0.10;0.10;;;;;;;;;;4981457;28;20620;-69
2022/04/22 07:50:06;;;;;;;0.10;0.10;;;;;;;;;;4982235;28;20633;-70
2022/04/22 07:52:34;;;;;;;0.10;0.10;;;;;;;;;;4977335;28;20702;-70
2022/04/22 07:55:01;;;;;;;0.10;0.10;;;;;;;;;;4978547;28;20660;-70
2022/04/22 07:57:29;;;;;;;0.10;0.10;;;;;;;;;;4977001;28;20632;-70
2022/04/22 07:59:57;;;;;;;0.10;0.10;;;;;;;;;;4979090;28;20617;-70
2022/04/22 08:02:25;;;;;;;0.10;0.10;;;;;;;;;;4982691;28;20695;-70
2022/04/22 08:04:53;;;;;;;0.10;0.10;;;;;;;;;;4980978;28;20655;-70
2022/04/22 08:07:21;;;;;;;0.10;0.10;;;;;;;;;;4978538;28;20644;-70
2022/04/22 08:09:48;;;;;;;0.10;0.10;;;;;;;;;;4974980;28;20679;-68
2022/04/22 08:12:19;;;;;;;0.10;0.10;;;;;;;;;;4975439;28;20743;-69
2022/04/22 08:14:47;;;;;;;0.10;0.10;;;;;;;;;;4980864;28;20656;-69
2022/04/22 08:17:16;;;;;;;0.10;0.10;;;;;;;;;;4977837;28;20672;-70
2022/04/22 08:19:46;;;;;;;0.10;0.10;;;;;;;;;;4981975;28;20666;-69
2022/04/22 08:22:14;;;;;;;0.10;0.10;;;;;;;;;;4980349;28;20967;-69
2022/04/22 08:24:42;;;;;;;0.10;0.10;;;;;;;;;;4998911;28;20661;-71
2022/04/22 08:27:10;;;;;;;0.10;0.10;;;;;;;;;;5000117;28;20611;-70
2022/04/22 08:29:37;;;;;;;0.10;0.10;;;;;;;;;;4986492;28;20671;-70
2022/04/22 08:32:05;;;;;;;0.10;0.10;;;;;;;;;;4976276;28;20701;-70
2022/04/22 08:34:32;;;;;;;0.10;0.10;;;;;;;;;;5000918;28;20717;-69
2022/04/22 08:37:00;;;;;;;0.10;0.10;;;;;;;;;;4979944;28;20201;-70
2022/04/22 08:39:28;;;;;;;0.10;0.10;;;;;;;;;;4997396;28;20659;-70
2022/04/22 08:41:56;;;;;;;0.10;0.10;;;;;;;;;;4977560;28;20270;-69
2022/04/22 08:44:24;;;;;;;0.10;0.10;;;;;;;;;;4993398;28;20220;-69
2022/04/22 08:52:18;;;;;;;0.10;0.10;;;;;;;;;;4995610;28;20577;-71
2022/04/22 08:54:48;;;;;;;0.10;0.10;;;;;;;;;;4994903;28;20315;-71
2022/04/22 08:57:15;;;;;;;0.03;0.03;;;;;;;;;;4985024;28;20216;-70
2022/04/22 08:59:43;;;;;;;0.10;0.10;;;;;;;;;;4982433;28;20278;-71
2022/04/22 09:02:10;;;;;;;0.10;0.10;;;;;;;;;;4980042;28;20634;-70
2022/04/22 09:04:38;;;;;;;0.10;0.10;;;;;;;;;;4991737;28;20267;-70
2022/04/22 09:07:05;;;;;;;0.10;0.10;;;;;;;;;;4981805;28;20213;-70
2022/04/22 09:09:33;;;;;;;0.10;0.10;;;;;;;;;;4984881;28;20287;-71
2022/04/22 09:12:12;;;;;;;0.10;0.10;;;;;;;;;;4974209;28;20212;-70
2022/04/22 09:14:46;;;;;;;0.10;0.10;;;;;;;;;;4978062;28;20724;-70
2022/04/22 09:17:16;;;;;;;0.10;0.10;;;;;;;;;;4987561;28;20266;-70
2022/04/22 09:19:44;;;;;;;0.00;0.00;;;;;;;;;;5001127;28;20220;-71
2022/04/22 09:22:11;;;;;;;0.10;0.10;;;;;;;;;;4989571;28;20200;-69
2022/04/22 09:24:47;;;;;;;0.10;0.10;;;;;;;;;;4984374;28;20232;-70
2022/04/22 09:27:16;;;;;;;0.10;0.10;;;;;;;;;;4982029;28;20204;-70
2022/04/22 09:29:44;;;;;;;0.10;0.10;;;;;;;;;;5002754;28;20236;-70
2022/04/22 09:32:12;;;;;;;0.10;0.10;;;;;;;;;;4985463;28;20204;-71
2022/04/22 09:34:42;;;;;;;0.10;0.10;;;;;;;;;;4982400;28;20232;-70
2022/04/22 09:42:52;;;;;;;0.00;0.00;;;;;;;;;;4999710;28;20200;-71
2022/04/22 09:45:19;;;;;;;0.10;0.10;;;;;;;;;;4986451;28;20209;-70
2022/04/22 09:47:57;;;;;;;0.10;0.10;;;;;;;;;;5004842;28;20224;-69
2022/04/22 09:50:39;;;;;;;0.00;0.00;;;;;;;;;;4991198;28;20282;-70
2022/04/22 09:53:07;;;;;;;0.10;0.10;;;;;;;;;;4997472;28;20283;-71
2022/04/22 09:55:37;;;;;;;0.10;0.10;;;;;;;;;;5001359;28;20203;-70
2022/04/22 09:58:06;;;;;;;0.00;0.00;;;;;;;;;;4986265;28;20239;-70
2022/04/22 10:00:34;;;;;;;0.10;0.10;;;;;;;;;;5003822;28;20207;-71
2022/04/22 10:03:01;;;;;;;0.00;0.00;;;;;;;;;;4995473;28;20205;-71
2022/04/22 10:05:31;;;;;;;0.07;0.07;;;;;;;;;;5003589;28;20204;-71
2022/04/22 10:08:00;;;;;;;0.00;0.00;;;;;;;;;;4999836;28;20192;-70
2022/04/22 10:10:29;;;;;;;0.00;0.00;;;;;;;;;;4985569;28;20271;-70
2022/04/22 10:12:58;;;;;;;0.10;0.10;;;;;;;;;;4997674;28;20205;-70
2022/04/22 10:15:29;;;;;;;0.10;0.10;;;;;;;;;;4997823;28;20193;-71
2022/04/22 10:17:57;;;;;;;0.10;0.10;;;;;;;;;;4981122;28;20200;-71
2022/04/22 10:20:25;;;;;;;0.07;0.07;;;;;;;;;;5004965;28;20226;-71
2022/04/22 10:22:55;;;;;;;0.10;0.10;;;;;;;;;;4996773;28;20202;-70
2022/04/22 10:25:25;;;;;;;0.10;0.10;;;;;;;;;;5000295;28;20220;-70
2022/04/22 10:27:53;;;;;;;0.10;0.10;;;;;;;;;;4980143;28;20231;-71
2022/04/22 10:30:21;;;;;;;0.10;0.10;;;;;;;;;;4984804;28;20283;-71
2022/04/22 10:32:50;;;;;;;0.00;0.00;;;;;;;;;;4994526;28;20204;-69
2022/04/22 10:35:17;;;;;;;0.10;0.10;;;;;;;;;;5000697;28;20233;-70
2022/04/22 10:37:45;;;;;;;0.10;0.10;;;;;;;;;;4995982;28;20208;-70
2022/04/22 10:40:20;;;;;;;0.10;0.10;;;;;;;;;;4984467;28;20228;-70
2022/04/22 10:42:48;;;;;;;0.00;0.00;;;;;;;;;;4981639;28;20208;-70
2022/04/22 10:48:02;;;;;;;0.00;0.00;;;;;;;;;;4986553;28;20196;-71
2022/04/22 10:50:31;;;;;;;0.10;0.10;;;;;;;;;;4996653;28;20590;-72
2022/04/22 10:53:03;;;;;;;0.10;0.10;;;;;;;;;;4979251;28;20663;-71
2022/04/22 10:55:31;;;;;;;0.10;0.10;;;;;;;;;;5000925;28;20275;-71
2022/04/22 10:58:13;;;;;;;0.00;0.00;;;;;;;;;;4980547;28;20201;-70
2022/04/22 11:00:41;;;;;;;0.10;0.10;;;;;;;;;;4996381;28;20209;-70
2022/04/22 11:03:14;;;;;;;0.00;0.00;;;;;;;;;;4982299;28;20307;-71
2022/04/22 11:05:48;;;;;;;0.00;0.00;;;;;;;;;;4994262;28;20205;-70
2022/04/22 11:08:25;;;;;;;0.00;0.00;;;;;;;;;;4980502;28;20291;-72
2022/04/22 11:11:13;;;;;;;0.10;0.10;;;;;;;;;;4983144;28;20200;-71
2022/04/22 11:13:42;;;;;;;0.10;0.10;;;;;;;;;;4984219;28;20213;-73
2022/04/22 11:16:13;;;;;;;0.00;0.00;;;;;;;;;;4999082;28;20725;-71
2022/04/22 11:18:43;;;;;;;0.00;0.00;;;;;;;;;;4981057;28;20305;-71
2022/04/22 11:21:15;;;;;;;0.10;0.10;;;;;;;;;;4985004;28;20225;-71
2022/04/22 11:23:44;;;;;;;0.00;0.00;;;;;;;;;;4980937;28;20239;-71
2022/04/22 11:26:14;;;;;;;0.00;0.00;;;;;;;;;;4987283;28;20208;-70
2022/04/22 11:28:44;;;;;;;0.00;0.00;;;;;;;;;;5000390;28;20201;-70
2022/04/22 11:31:12;;;;;;;0.00;0.00;;;;;;;;;;4983967;28;20357;-71
2022/04/22 11:33:53;;;;;;;0.00;0.00;;;;;;;;;;4977443;28;20220;-71
2022/04/22 11:36:20;;;;;;;0.00;0.00;;;;;;;;;;5001690;28;20216;-70
2022/04/22 11:38:49;;;;;;;0.07;0.07;;;;;;;;;;4997664;28;20216;-70
2022/04/22 11:41:20;;;;;;;0.10;0.10;;;;;;;;;;4979929;28;20262;-71
2022/04/22 11:43:48;;;;;;;0.00;0.00;;;;;;;;;;4984715;28;20256;-74
2022/04/22 11:46:16;;;;;;;0.00;0.00;;;;;;;;;;4981277;28;20239;-71
2022/04/22 11:48:49;;;;;;;0.00;0.00;;;;;;;;;;4999420;28;20261;-71
2022/04/22 11:51:17;;;;;;;0.00;0.00;;;;;;;;;;4982335;28;20678;-71
2022/04/22 11:53:48;;;;;;;0.00;0.00;;;;;;;;;;5000731;28;20251;-71
2022/04/22 11:56:20;;;;;;;0.00;0.00;;;;;;;;;;4986933;28;20204;-71
2022/04/22 11:58:52;;;;;;;0.00;0.00;;;;;;;;;;4978054;28;20763;-71
2022/04/22 12:06:57;;;;;;;0.00;0.00;;;;;;;;;;4985168;28;20200;-70
2022/04/22 12:09:25;;;;;;;0.00;0.00;;;;;;;;;;4978624;28;20306;-72
2022/04/22 12:11:53;;;;;;;0.07;0.07;;;;;;;;;;4973366;28;20287;-72
2022/04/22 12:14:24;;;;;;;0.00;0.00;;;;;;;;;;4999021;28;20225;-71
2022/04/22 12:16:55;;;;;;;0.10;0.10;;;;;;;;;;4996648;28;20243;-71
2022/04/22 12:19:24;;;;;;;0.10;0.10;;;;;;;;;;5000197;28;20220;-72
2022/04/22 12:21:52;;;;;;;0.03;0.03;;;;;;;;;;4983063;28;20990;-71
2022/04/22 12:24:20;;;;;;;0.10;0.10;;;;;;;;;;4980903;28;20251;-71
2022/04/22 12:26:48;;;;;;;0.00;0.00;;;;;;;;;;4999436;28;20200;-72
2022/04/22 12:29:16;;;;;;;0.00;0.00;;;;;;;;;;4984389;28;20197;-71
2022/04/22 12:31:44;;;;;;;0.10;0.10;;;;;;;;;;4985690;28;20288;-71
2022/04/22 12:34:12;;;;;;;0.00;0.00;;;;;;;;;;4993962;28;20217;-73
2022/04/22 12:36:55;;;;;;;0.00;0.00;;;;;;;;;;4982854;28;20562;-70
2022/04/22 12:39:33;;;;;;;0.00;0.00;;;;;;;;;;4986928;28;20294;-70
2022/04/22 12:42:00;;;;;;;0.00;0.00;;;;;;;;;;4998043;28;20208;-71
2022/04/22 12:44:28;;;;;;;0.00;0.00;;;;;;;;;;4982487;28;20222;-72
2022/04/22 12:52:36;;;;;;;0.00;0.00;;;;;;;;;;4985985;28;20184;-71
2022/04/22 12:55:05;;;;;;;0.00;0.00;;;;;;;;;;4975247;28;20235;-71
2022/04/22 12:57:33;;;;;;;0.00;0.00;;;;;;;;;;4983126;28;20204;-71
2022/04/22 13:00:00;;;;;;;0.00;0.00;;;;;;;;;;4999306;28;20323;-70
2022/04/22 13:02:29;;;;;;;0.00;0.00;;;;;;;;;;4984067;28;20196;-71
2022/04/22 13:04:57;;;;;;;0.00;0.00;;;;;;;;;;4980167;28;20405;-71
2022/04/22 13:07:25;;;;;;;0.03;0.03;;;;;;;;;;4982689;28;20200;-71
2022/04/22 13:09:53;;;;;;;0.10;0.10;;;;;;;;;;4978835;28;20291;-71
2022/04/22 13:12:21;;;;;;;0.10;0.10;;;;;;;;;;4994859;28;20198;-72
2022/04/22 13:14:48;;;;;;;0.00;0.00;;;;;;;;;;4983132;28;20216;-71
2022/04/22 13:17:19;;;;;;;0.00;0.00;;;;;;;;;;4980483;28;20213;-70
2022/04/22 13:19:47;;;;;;;0.00;0.00;;;;;;;;;;4986757;28;20235;-71
2022/04/22 13:22:14;;;;;;;0.03;0.03;;;;;;;;;;5000559;28;20214;-71
2022/04/22 13:24:44;;;;;;;0.00;0.00;;;;;;;;;;4992190;28;20225;-71
2022/04/22 13:27:13;;;;;;;0.10;0.10;;;;;;;;;;4978197;28;20201;-73
2022/04/22 13:29:41;;;;;;;0.00;0.00;;;;;;;;;;4989438;28;20205;-71
2022/04/22 13:32:09;;;;;;;0.00;0.00;;;;;;;;;;4995633;28;20228;-71
2022/04/22 13:34:36;;;;;;;0.00;0.00;;;;;;;;;;4978475;28;20271;-71
2022/04/22 13:37:04;;;;;;;0.00;0.00;;;;;;;;;;4991816;28;20205;-71
2022/04/22 13:39:31;;;;;;;0.00;0.00;;;;;;;;;;4987178;28;20215;-71
2022/04/22 13:41:59;;;;;;;0.10;0.10;;;;;;;;;;4976525;28;20200;-71
2022/04/22 13:52:43;;;;;;;0.10;0.10;;;;;;;;;;4985674;28;20278;-71
2022/04/22 13:55:10;;;;;;;0.00;0.00;;;;;;;;;;4985924;28;20326;-71
2022/04/22 13:57:38;;;;;;;0.00;0.00;;;;;;;;;;4996777;28;20295;-71
2022/04/22 14:00:10;;;;;;;0.10;0.10;;;;;;;;;;4979331;28;20316;-71
2022/04/22 14:02:38;;;;;;;0.10;0.10;;;;;;;;;;4985186;28;20212;-71
2022/04/22 14:05:06;;;;;;;0.00;0.00;;;;;;;;;;5002348;28;20280;-71
2022/04/22 14:07:33;;;;;;;0.00;0.00;;;;;;;;;;4998026;28;20216;-71
2022/04/22 14:10:01;;;;;;;0.00;0.00;;;;;;;;;;4980616;28;20204;-71
2022/04/22 14:12:29;;;;;;;0.00;0.00;;;;;;;;;;4982505;28;20287;-71
2022/04/22 14:14:57;;;;;;;0.00;0.00;;;;;;;;;;4985895;28;20247;-71
2022/04/22 14:17:26;;;;;;;0.00;0.00;;;;;;;;;;5001198;28;20212;-70
2022/04/22 14:19:53;;;;;;;0.00;0.00;;;;;;;;;;4987162;28;20224;-70
2022/04/22 14:22:22;;;;;;;0.00;0.00;;;;;;;;;;4981401;28;20296;-71
2022/04/22 14:24:50;;;;;;;0.00;0.00;;;;;;;;;;4985831;28;20254;-71
2022/04/22 14:27:17;;;;;;;0.00;0.00;;;;;;;;;;4980155;28;20208;-70
2022/04/22 14:29:44;;;;;;;0.10;0.10;;;;;;;;;;4999329;28;20291;-71
2022/04/22 14:32:12;;;;;;;0.00;0.00;;;;;;;;;;4982015;28;20555;-71
2022/04/22 14:34:40;;;;;;;0.00;0.00;;;;;;;;;;4987159;28;20308;-71
2022/04/22 14:37:07;;;;;;;0.00;0.00;;;;;;;;;;4997436;28;20197;-72
2022/04/22 14:39:35;;;;;;;0.00;0.00;;;;;;;;;;5004090;28;20248;-71
2022/04/22 14:42:03;;;;;;;0.00;0.00;;;;;;;;;;4981076;28;20208;-71
2022/04/22 14:44:30;;;;;;;0.07;0.07;;;;;;;;;;5005384;28;20217;-71
2022/04/22 14:46:58;;;;;;;0.00;0.00;;;;;;;;;;4979951;28;20217;-71
2022/04/22 14:49:25;;;;;;;0.00;0.00;;;;;;;;;;4983224;28;20251;-71
2022/04/22 14:51:56;;;;;;;0.00;0.00;;;;;;;;;;4990618;28;20301;-72
2022/04/22 14:54:24;;;;;;;0.00;0.00;;;;;;;;;;5001587;28;20296;-71
2022/04/22 14:56:52;;;;;;;0.00;0.00;;;;;;;;;;4985759;28;20205;-71
2022/04/22 14:59:20;;;;;;;0.00;0.00;;;;;;;;;;5001298;28;20225;-71
2022/04/22 15:01:47;;;;;;;0.00;0.00;;;;;;;;;;4978234;28;20288;-72
2022/04/22 15:04:14;;;;;;;0.07;0.07;;;;;;;;;;4976530;28;20317;-71
2022/04/22 15:06:41;;;;;;;0.00;0.00;;;;;;;;;;4996625;28;20673;-72
2022/04/22 15:09:12;;;;;;;0.00;0.00;;;;;;;;;;4979441;28;20297;-72
2022/04/22 15:11:39;;;;;;;0.00;0.00;;;;;;;;;;4994314;28;20200;-71
2022/04/22 15:14:07;;;;;;;0.00;0.00;;;;;;;;;;4980437;28;20220;-71
2022/04/22 15:16:38;;;;;;;0.00;0.00;;;;;;;;;;5001173;28;20196;-71
2022/04/22 15:24:37;;;;;;;0.00;0.00;;;;;;;;;;4986842;28;20236;-72
2022/04/22 15:27:05;;;;;;;0.00;0.00;;;;;;;;;;4986436;28;20209;-71
2022/04/22 15:29:33;;;;;;;0.00;0.00;;;;;;;;;;5003049;28;20225;-70
2022/04/22 15:32:03;;;;;;;0.00;0.00;;;;;;;;;;5000096;28;20216;-70
2022/04/22 15:34:31;;;;;;;0.00;0.00;;;;;;;;;;4977669;28;20216;-71
2022/04/22 15:36:59;;;;;;;0.00;0.00;;;;;;;;;;4980299;28;20230;-71
2022/04/22 15:39:28;;;;;;;0.00;0.00;;;;;;;;;;4984030;28;20720;-71
2022/04/22 15:41:57;;;;;;;0.00;0.00;;;;;;;;;;4995323;28;20335;-71
2022/04/22 15:44:28;;;;;;;0.00;0.00;;;;;;;;;;4988023;28;20220;-71
2022/04/22 15:46:55;;;;;;;0.00;0.00;;;;;;;;;;4978602;28;20204;-71
2022/04/22 15:49:23;;;;;;;0.00;0.00;;;;;;;;;;4997809;28;20200;-71
2022/04/22 15:51:50;;;;;;;0.00;0.00;;;;;;;;;;4987160;28;20210;-71
2022/04/22 15:54:18;;;;;;;0.00;0.00;;;;;;;;;;4979139;28;20229;-72
2022/04/22 15:56:45;;;;;;;0.00;0.00;;;;;;;;;;4997140;28;20235;-72
2022/04/22 15:59:13;;;;;;;0.00;0.00;;;;;;;;;;4986007;28;20312;-71
2022/04/22 16:01:43;;;;;;;0.00;0.00;;;;;;;;;;4973821;28;20233;-71
2022/04/22 16:04:11;;;;;;;0.00;0.00;;;;;;;;;;5001089;28;20245;-72
2022/04/22 16:06:40;;;;;;;0.00;0.00;;;;;;;;;;4981845;28;20232;-71
2022/04/22 16:09:08;;;;;;;0.00;0.00;;;;;;;;;;5001018;28;20209;-70
2022/04/22 16:17:07;;;;;;;0.00;0.00;;;;;;;;;;5000438;28;20204;-72
2022/04/22 16:19:34;;;;;;;0.10;0.10;;;;;;;;;;4986280;28;20203;-72